sensor_id;sensor_type;location;lat;lon;timestamp;P1;durP1;ratioP1;P2;durP2;ratioP2
16520;SDS011;8373;48.110;11.522;2023-01-24T00:01:11;109.47;;;29.90;;
16520;SDS011;8373;48.110;11.522;2023-01-24T00:03:38;95.17;;;30.43;;
16520;SDS011;8373;48.110;11.522;2023-01-24T00:06:05;82.93;;;29.07;;
16520;SDS011;8373;48.110;11.522;2023-01-24T00:08:33;96.57;;;29.23;;
16520;SDS011;8373;48.110;11.522;2023-01-24T00:11:02;94.73;;;28.23;;
16520;SDS011;8373;48.110;11.522;2023-01-24T00:13:31;109.17;;;29.87;;
16520;SDS011;8373;48.110;11.522;2023-01-24T00:16:03;86.03;;;28.87;;
16520;SDS011;8373;48.110;11.522;2023-01-24T00:18:31;98.07;;;30.57;;
16520;SDS011;8373;48.110;11.522;2023-01-24T00:21:02;99.67;;;30.10;;
16520;SDS011;8373;48.110;11.522;2023-01-24T00:23:31;97.73;;;28.83;;
16520;SDS011;8373;48.110;11.522;2023-01-24T00:25:58;92.93;;;28.60;;
16520;SDS011;8373;48.110;11.522;2023-01-24T00:28:26;104.30;;;29.33;;
16520;SDS011;8373;48.110;11.522;2023-01-24T00:30:53;106.40;;;30.80;;
16520;SDS011;8373;48.110;11.522;2023-01-24T00:33:20;109.73;;;29.87;;
16520;SDS011;8373;48.110;11.522;2023-01-24T00:35:49;119.40;;;33.03;;
16520;SDS011;8373;48.110;11.522;2023-01-24T00:38:16;107.60;;;32.23;;
16520;SDS011;8373;48.110;11.522;2023-01-24T00:40:43;112.93;;;32.40;;
16520;SDS011;8373;48.110;11.522;2023-01-24T00:43:11;115.33;;;30.77;;
16520;SDS011;8373;48.110;11.522;2023-01-24T00:45:39;109.53;;;30.37;;
16520;SDS011;8373;48.110;11.522;2023-01-24T00:48:07;102.03;;;30.50;;
16520;SDS011;8373;48.110;11.522;2023-01-24T00:50:35;106.57;;;29.70;;
16520;SDS011;8373;48.110;11.522;2023-01-24T00:53:02;99.57;;;31.20;;
16520;SDS011;8373;48.110;11.522;2023-01-24T00:55:30;111.50;;;31.30;;
16520;SDS011;8373;48.110;11.522;2023-01-24T00:57:57;109.00;;;33.00;;
16520;SDS011;8373;48.110;11.522;2023-01-24T01:00:24;115.10;;;31.23;;
16520;SDS011;8373;48.110;11.522;2023-01-24T01:02:52;104.40;;;32.13;;
16520;SDS011;8373;48.110;11.522;2023-01-24T01:05:19;121.03;;;31.70;;
16520;SDS011;8373;48.110;11.522;2023-01-24T01:07:46;97.53;;;31.00;;
16520;SDS011;8373;48.110;11.522;2023-01-24T01:10:13;99.83;;;30.50;;
16520;SDS011;8373;48.110;11.522;2023-01-24T01:12:40;98.90;;;30.50;;
16520;SDS011;8373;48.110;11.522;2023-01-24T01:15:07;97.13;;;30.23;;
16520;SDS011;8373;48.110;11.522;2023-01-24T01:17:35;107.93;;;29.67;;
16520;SDS011;8373;48.110;11.522;2023-01-24T01:20:04;118.77;;;31.67;;
16520;SDS011;8373;48.110;11.522;2023-01-24T01:22:31;112.97;;;31.93;;
16520;SDS011;8373;48.110;11.522;2023-01-24T01:24:58;97.23;;;29.07;;
16520;SDS011;8373;48.110;11.522;2023-01-24T01:27:25;98.73;;;30.70;;
16520;SDS011;8373;48.110;11.522;2023-01-24T01:29:52;122.67;;;32.50;;
16520;SDS011;8373;48.110;11.522;2023-01-24T01:32:19;103.80;;;29.80;;
16520;SDS011;8373;48.110;11.522;2023-01-24T01:34:46;128.93;;;30.10;;
16520;SDS011;8373;48.110;11.522;2023-01-24T01:37:14;118.30;;;33.70;;
16520;SDS011;8373;48.110;11.522;2023-01-24T01:39:41;102.67;;;30.40;;
16520;SDS011;8373;48.110;11.522;2023-01-24T01:42:08;116.80;;;33.47;;
16520;SDS011;8373;48.110;11.522;2023-01-24T01:44:38;117.13;;;31.03;;
16520;SDS011;8373;48.110;11.522;2023-01-24T01:47:12;120.70;;;33.53;;
16520;SDS011;8373;48.110;11.522;2023-01-24T01:49:44;122.43;;;33.10;;
16520;SDS011;8373;48.110;11.522;2023-01-24T01:52:17;133.17;;;34.70;;
16520;SDS011;8373;48.110;11.522;2023-01-24T01:54:45;124.67;;;34.40;;
16520;SDS011;8373;48.110;11.522;2023-01-24T01:57:14;103.83;;;34.43;;
16520;SDS011;8373;48.110;11.522;2023-01-24T01:59:45;133.10;;;37.07;;
16520;SDS011;8373;48.110;11.522;2023-01-24T02:02:17;119.67;;;33.43;;
16520;SDS011;8373;48.110;11.522;2023-01-24T02:04:46;115.83;;;33.63;;
16520;SDS011;8373;48.110;11.522;2023-01-24T02:07:20;118.50;;;33.43;;
16520;SDS011;8373;48.110;11.522;2023-01-24T02:09:51;128.03;;;35.90;;
16520;SDS011;8373;48.110;11.522;2023-01-24T02:12:20;149.53;;;34.83;;
16520;SDS011;8373;48.110;11.522;2023-01-24T02:14:52;132.37;;;34.63;;
16520;SDS011;8373;48.110;11.522;2023-01-24T02:17:38;139.93;;;39.13;;
16520;SDS011;8373;48.110;11.522;2023-01-24T02:20:08;123.73;;;34.67;;
16520;SDS011;8373;48.110;11.522;2023-01-24T02:22:47;145.87;;;38.43;;
16520;SDS011;8373;48.110;11.522;2023-01-24T02:25:26;138.23;;;35.73;;
16520;SDS011;8373;48.110;11.522;2023-01-24T02:27:59;118.83;;;34.63;;
16520;SDS011;8373;48.110;11.522;2023-01-24T02:30:28;142.57;;;37.27;;
16520;SDS011;8373;48.110;11.522;2023-01-24T02:32:55;129.80;;;38.17;;
16520;SDS011;8373;48.110;11.522;2023-01-24T02:35:24;113.43;;;34.20;;
16520;SDS011;8373;48.110;11.522;2023-01-24T02:37:52;118.13;;;32.77;;
16520;SDS011;8373;48.110;11.522;2023-01-24T02:40:21;121.17;;;32.13;;
16520;SDS011;8373;48.110;11.522;2023-01-24T02:42:49;149.57;;;37.23;;
16520;SDS011;8373;48.110;11.522;2023-01-24T02:45:20;132.33;;;39.80;;
16520;SDS011;8373;48.110;11.522;2023-01-24T02:47:50;133.37;;;36.97;;
16520;SDS011;8373;48.110;11.522;2023-01-24T02:50:19;139.13;;;35.33;;
16520;SDS011;8373;48.110;11.522;2023-01-24T02:52:48;136.47;;;38.37;;
16520;SDS011;8373;48.110;11.522;2023-01-24T02:55:32;132.30;;;34.20;;
16520;SDS011;8373;48.110;11.522;2023-01-24T02:58:20;141.17;;;35.93;;
16520;SDS011;8373;48.110;11.522;2023-01-24T03:00:47;125.30;;;34.13;;
16520;SDS011;8373;48.110;11.522;2023-01-24T03:03:14;127.00;;;35.97;;
16520;SDS011;8373;48.110;11.522;2023-01-24T03:05:41;132.47;;;34.97;;
16520;SDS011;8373;48.110;11.522;2023-01-24T03:08:21;138.90;;;37.20;;
16520;SDS011;8373;48.110;11.522;2023-01-24T03:10:50;130.47;;;35.23;;
16520;SDS011;8373;48.110;11.522;2023-01-24T03:13:17;145.37;;;40.13;;
16520;SDS011;8373;48.110;11.522;2023-01-24T03:16:03;136.87;;;36.43;;
16520;SDS011;8373;48.110;11.522;2023-01-24T03:18:48;126.87;;;33.20;;
16520;SDS011;8373;48.110;11.522;2023-01-24T03:21:34;144.10;;;37.13;;
16520;SDS011;8373;48.110;11.522;2023-01-24T03:24:19;137.47;;;36.00;;
16520;SDS011;8373;48.110;11.522;2023-01-24T03:27:04;148.70;;;38.90;;
16520;SDS011;8373;48.110;11.522;2023-01-24T03:29:48;133.97;;;34.93;;
16520;SDS011;8373;48.110;11.522;2023-01-24T03:32:33;142.60;;;36.17;;
16520;SDS011;8373;48.110;11.522;2023-01-24T03:35:18;132.73;;;34.93;;
16520;SDS011;8373;48.110;11.522;2023-01-24T03:37:45;120.97;;;34.20;;
16520;SDS011;8373;48.110;11.522;2023-01-24T03:40:30;146.23;;;37.77;;
16520;SDS011;8373;48.110;11.522;2023-01-24T03:42:57;147.90;;;38.30;;
16520;SDS011;8373;48.110;11.522;2023-01-24T03:45:25;123.20;;;35.90;;
16520;SDS011;8373;48.110;11.522;2023-01-24T03:47:56;135.93;;;34.97;;
16520;SDS011;8373;48.110;11.522;2023-01-24T03:50:24;140.30;;;36.10;;
16520;SDS011;8373;48.110;11.522;2023-01-24T03:53:10;151.03;;;34.20;;
16520;SDS011;8373;48.110;11.522;2023-01-24T03:55:38;145.30;;;36.57;;
16520;SDS011;8373;48.110;11.522;2023-01-24T03:58:06;140.50;;;33.60;;
16520;SDS011;8373;48.110;11.522;2023-01-24T04:00:34;133.90;;;33.77;;
16520;SDS011;8373;48.110;11.522;2023-01-24T04:03:03;119.70;;;33.27;;
16520;SDS011;8373;48.110;11.522;2023-01-24T04:05:31;127.07;;;32.43;;
16520;SDS011;8373;48.110;11.522;2023-01-24T04:07:59;125.97;;;36.67;;
16520;SDS011;8373;48.110;11.522;2023-01-24T04:10:26;137.63;;;34.73;;
16520;SDS011;8373;48.110;11.522;2023-01-24T04:12:53;128.73;;;33.20;;
16520;SDS011;8373;48.110;11.522;2023-01-24T04:15:22;123.07;;;35.50;;
16520;SDS011;8373;48.110;11.522;2023-01-24T04:17:51;135.20;;;33.47;;
16520;SDS011;8373;48.110;11.522;2023-01-24T04:20:23;120.90;;;35.57;;
16520;SDS011;8373;48.110;11.522;2023-01-24T04:22:50;118.67;;;35.40;;
16520;SDS011;8373;48.110;11.522;2023-01-24T04:25:17;117.47;;;30.57;;
16520;SDS011;8373;48.110;11.522;2023-01-24T04:27:44;140.30;;;34.60;;
16520;SDS011;8373;48.110;11.522;2023-01-24T04:30:13;133.30;;;35.10;;
16520;SDS011;8373;48.110;11.522;2023-01-24T04:32:41;117.77;;;33.23;;
16520;SDS011;8373;48.110;11.522;2023-01-24T04:35:09;126.33;;;33.27;;
16520;SDS011;8373;48.110;11.522;2023-01-24T04:37:42;136.30;;;36.57;;
16520;SDS011;8373;48.110;11.522;2023-01-24T04:40:10;124.43;;;35.47;;
16520;SDS011;8373;48.110;11.522;2023-01-24T04:42:38;118.00;;;35.20;;
16520;SDS011;8373;48.110;11.522;2023-01-24T04:45:06;120.30;;;31.60;;
16520;SDS011;8373;48.110;11.522;2023-01-24T04:47:34;128.77;;;35.83;;
16520;SDS011;8373;48.110;11.522;2023-01-24T04:50:00;109.70;;;31.17;;
16520;SDS011;8373;48.110;11.522;2023-01-24T04:52:27;124.10;;;35.50;;
16520;SDS011;8373;48.110;11.522;2023-01-24T04:54:56;122.50;;;32.00;;
16520;SDS011;8373;48.110;11.522;2023-01-24T04:57:23;133.70;;;35.63;;
16520;SDS011;8373;48.110;11.522;2023-01-24T04:59:50;128.47;;;33.40;;
16520;SDS011;8373;48.110;11.522;2023-01-24T05:02:16;121.57;;;34.40;;
16520;SDS011;8373;48.110;11.522;2023-01-24T05:04:43;125.43;;;32.33;;
16520;SDS011;8373;48.110;11.522;2023-01-24T05:07:10;111.37;;;32.10;;
16520;SDS011;8373;48.110;11.522;2023-01-24T05:09:37;120.73;;;33.80;;
16520;SDS011;8373;48.110;11.522;2023-01-24T05:12:06;125.00;;;34.60;;
16520;SDS011;8373;48.110;11.522;2023-01-24T05:14:33;138.20;;;34.70;;
16520;SDS011;8373;48.110;11.522;2023-01-24T05:17:00;136.60;;;36.07;;
16520;SDS011;8373;48.110;11.522;2023-01-24T05:19:26;134.83;;;36.63;;
16520;SDS011;8373;48.110;11.522;2023-01-24T05:21:53;114.70;;;32.73;;
16520;SDS011;8373;48.110;11.522;2023-01-24T05:24:20;126.37;;;34.47;;
16520;SDS011;8373;48.110;11.522;2023-01-24T05:26:47;114.30;;;32.20;;
16520;SDS011;8373;48.110;11.522;2023-01-24T05:29:16;118.17;;;30.47;;
16520;SDS011;8373;48.110;11.522;2023-01-24T05:31:43;123.33;;;30.07;;
16520;SDS011;8373;48.110;11.522;2023-01-24T05:34:09;123.80;;;30.30;;
16520;SDS011;8373;48.110;11.522;2023-01-24T05:36:36;120.30;;;30.60;;
16520;SDS011;8373;48.110;11.522;2023-01-24T05:39:03;113.07;;;33.33;;
16520;SDS011;8373;48.110;11.522;2023-01-24T05:41:30;108.83;;;28.57;;
16520;SDS011;8373;48.110;11.522;2023-01-24T05:43:57;128.57;;;30.50;;
16520;SDS011;8373;48.110;11.522;2023-01-24T05:46:26;116.80;;;29.13;;
16520;SDS011;8373;48.110;11.522;2023-01-24T05:48:54;122.10;;;34.27;;
16520;SDS011;8373;48.110;11.522;2023-01-24T05:51:21;113.77;;;28.57;;
16520;SDS011;8373;48.110;11.522;2023-01-24T05:53:48;116.07;;;30.50;;
16520;SDS011;8373;48.110;11.522;2023-01-24T05:56:15;96.87;;;28.87;;
16520;SDS011;8373;48.110;11.522;2023-01-24T05:58:45;105.73;;;28.83;;
16520;SDS011;8373;48.110;11.522;2023-01-24T06:01:13;108.80;;;29.00;;
16520;SDS011;8373;48.110;11.522;2023-01-24T06:03:43;107.17;;;27.73;;
16520;SDS011;8373;48.110;11.522;2023-01-24T06:06:12;93.30;;;28.90;;
16520;SDS011;8373;48.110;11.522;2023-01-24T06:08:40;99.17;;;27.57;;
16520;SDS011;8373;48.110;11.522;2023-01-24T06:11:09;106.63;;;30.40;;
16520;SDS011;8373;48.110;11.522;2023-01-24T06:13:38;98.97;;;28.07;;
16520;SDS011;8373;48.110;11.522;2023-01-24T06:16:06;118.73;;;31.97;;
16520;SDS011;8373;48.110;11.522;2023-01-24T06:18:35;118.97;;;30.33;;
16520;SDS011;8373;48.110;11.522;2023-01-24T06:21:10;103.40;;;27.57;;
16520;SDS011;8373;48.110;11.522;2023-01-24T06:23:46;104.37;;;29.53;;
16520;SDS011;8373;48.110;11.522;2023-01-24T06:26:14;107.83;;;28.33;;
16520;SDS011;8373;48.110;11.522;2023-01-24T06:28:41;121.30;;;30.87;;
16520;SDS011;8373;48.110;11.522;2023-01-24T06:31:13;110.80;;;30.37;;
16520;SDS011;8373;48.110;11.522;2023-01-24T06:33:52;112.27;;;30.43;;
16520;SDS011;8373;48.110;11.522;2023-01-24T06:36:43;102.00;;;27.70;;
16520;SDS011;8373;48.110;11.522;2023-01-24T06:39:19;112.73;;;28.47;;
16520;SDS011;8373;48.110;11.522;2023-01-24T06:41:50;117.63;;;30.30;;
16520;SDS011;8373;48.110;11.522;2023-01-24T06:44:18;127.70;;;31.60;;
16520;SDS011;8373;48.110;11.522;2023-01-24T06:46:47;141.77;;;31.97;;
16520;SDS011;8373;48.110;11.522;2023-01-24T06:49:14;134.93;;;32.80;;
16520;SDS011;8373;48.110;11.522;2023-01-24T06:51:42;155.50;;;36.60;;
16520;SDS011;8373;48.110;11.522;2023-01-24T06:54:15;148.90;;;37.23;;
16520;SDS011;8373;48.110;11.522;2023-01-24T06:56:43;139.47;;;35.40;;
16520;SDS011;8373;48.110;11.522;2023-01-24T06:59:10;148.77;;;37.30;;
16520;SDS011;8373;48.110;11.522;2023-01-24T07:01:37;133.13;;;35.13;;
16520;SDS011;8373;48.110;11.522;2023-01-24T07:04:04;145.23;;;35.93;;
16520;SDS011;8373;48.110;11.522;2023-01-24T07:06:30;144.47;;;39.50;;
16520;SDS011;8373;48.110;11.522;2023-01-24T07:09:01;158.33;;;35.30;;
16520;SDS011;8373;48.110;11.522;2023-01-24T07:11:28;158.80;;;38.30;;
16520;SDS011;8373;48.110;11.522;2023-01-24T07:13:55;155.30;;;35.90;;
16520;SDS011;8373;48.110;11.522;2023-01-24T07:16:22;135.93;;;35.60;;
16520;SDS011;8373;48.110;11.522;2023-01-24T07:18:49;160.83;;;40.07;;
16520;SDS011;8373;48.110;11.522;2023-01-24T07:21:17;132.23;;;36.47;;
16520;SDS011;8373;48.110;11.522;2023-01-24T07:23:44;136.10;;;34.13;;
16520;SDS011;8373;48.110;11.522;2023-01-24T07:26:14;143.00;;;39.80;;
16520;SDS011;8373;48.110;11.522;2023-01-24T07:28:42;165.03;;;39.73;;
16520;SDS011;8373;48.110;11.522;2023-01-24T07:31:10;155.33;;;40.30;;
16520;SDS011;8373;48.110;11.522;2023-01-24T07:33:39;133.80;;;38.10;;
16520;SDS011;8373;48.110;11.522;2023-01-24T07:36:12;150.30;;;39.10;;
16520;SDS011;8373;48.110;11.522;2023-01-24T07:38:40;135.80;;;35.30;;
16520;SDS011;8373;48.110;11.522;2023-01-24T07:41:07;135.43;;;38.37;;
16520;SDS011;8373;48.110;11.522;2023-01-24T07:43:36;150.10;;;37.67;;
16520;SDS011;8373;48.110;11.522;2023-01-24T07:46:04;124.67;;;32.27;;
16520;SDS011;8373;48.110;11.522;2023-01-24T07:48:31;124.50;;;34.50;;
16520;SDS011;8373;48.110;11.522;2023-01-24T07:50:58;150.03;;;35.20;;
16520;SDS011;8373;48.110;11.522;2023-01-24T07:53:25;136.53;;;35.80;;
16520;SDS011;8373;48.110;11.522;2023-01-24T07:55:52;140.10;;;35.80;;
16520;SDS011;8373;48.110;11.522;2023-01-24T07:58:19;123.30;;;35.73;;
16520;SDS011;8373;48.110;11.522;2023-01-24T08:00:47;118.97;;;35.60;;
16520;SDS011;8373;48.110;11.522;2023-01-24T08:03:14;113.20;;;35.40;;
16520;SDS011;8373;48.110;11.522;2023-01-24T08:05:42;111.50;;;32.30;;
16520;SDS011;8373;48.110;11.522;2023-01-24T08:08:09;137.37;;;36.57;;
16520;SDS011;8373;48.110;11.522;2023-01-24T08:10:36;136.90;;;35.40;;
16520;SDS011;8373;48.110;11.522;2023-01-24T08:13:03;121.30;;;34.27;;
16520;SDS011;8373;48.110;11.522;2023-01-24T08:15:30;137.50;;;34.33;;
16520;SDS011;8373;48.110;11.522;2023-01-24T08:17:59;122.50;;;33.17;;
16520;SDS011;8373;48.110;11.522;2023-01-24T08:20:27;128.63;;;34.60;;
16520;SDS011;8373;48.110;11.522;2023-01-24T08:22:55;113.13;;;32.43;;
16520;SDS011;8373;48.110;11.522;2023-01-24T08:25:22;142.83;;;35.77;;
16520;SDS011;8373;48.110;11.522;2023-01-24T08:27:49;120.97;;;34.60;;
16520;SDS011;8373;48.110;11.522;2023-01-24T08:30:16;118.77;;;32.33;;
16520;SDS011;8373;48.110;11.522;2023-01-24T08:32:43;103.17;;;31.00;;
16520;SDS011;8373;48.110;11.522;2023-01-24T08:35:11;108.13;;;30.20;;
16520;SDS011;8373;48.110;11.522;2023-01-24T08:37:38;119.07;;;34.17;;
16520;SDS011;8373;48.110;11.522;2023-01-24T08:40:06;118.63;;;34.03;;
16520;SDS011;8373;48.110;11.522;2023-01-24T08:42:35;126.33;;;32.47;;
16520;SDS011;8373;48.110;11.522;2023-01-24T08:45:02;119.23;;;32.10;;
16520;SDS011;8373;48.110;11.522;2023-01-24T08:47:29;127.70;;;33.47;;
16520;SDS011;8373;48.110;11.522;2023-01-24T08:49:56;109.47;;;32.47;;
16520;SDS011;8373;48.110;11.522;2023-01-24T08:52:25;119.33;;;32.40;;
16520;SDS011;8373;48.110;11.522;2023-01-24T08:54:51;109.70;;;31.63;;
16520;SDS011;8373;48.110;11.522;2023-01-24T08:57:18;110.73;;;30.80;;
16520;SDS011;8373;48.110;11.522;2023-01-24T08:59:45;116.20;;;31.73;;
16520;SDS011;8373;48.110;11.522;2023-01-24T09:02:12;109.87;;;28.63;;
16520;SDS011;8373;48.110;11.522;2023-01-24T09:04:41;95.80;;;27.53;;
16520;SDS011;8373;48.110;11.522;2023-01-24T09:07:08;116.40;;;29.40;;
16520;SDS011;8373;48.110;11.522;2023-01-24T09:09:37;112.30;;;30.57;;
16520;SDS011;8373;48.110;11.522;2023-01-24T09:12:04;98.53;;;29.27;;
16520;SDS011;8373;48.110;11.522;2023-01-24T09:14:32;111.13;;;31.40;;
16520;SDS011;8373;48.110;11.522;2023-01-24T09:16:58;111.20;;;29.80;;
16520;SDS011;8373;48.110;11.522;2023-01-24T09:19:25;88.13;;;25.47;;
16520;SDS011;8373;48.110;11.522;2023-01-24T09:21:52;112.03;;;28.37;;
16520;SDS011;8373;48.110;11.522;2023-01-24T09:24:21;94.63;;;26.80;;
16520;SDS011;8373;48.110;11.522;2023-01-24T09:26:50;85.63;;;25.67;;
16520;SDS011;8373;48.110;11.522;2023-01-24T09:29:17;87.57;;;24.37;;
16520;SDS011;8373;48.110;11.522;2023-01-24T09:31:44;97.53;;;29.30;;
16520;SDS011;8373;48.110;11.522;2023-01-24T09:34:12;108.57;;;27.07;;
16520;SDS011;8373;48.110;11.522;2023-01-24T09:36:39;98.93;;;23.73;;
16520;SDS011;8373;48.110;11.522;2023-01-24T09:39:06;99.87;;;24.83;;
16520;SDS011;8373;48.110;11.522;2023-01-24T09:41:39;105.33;;;23.50;;
16520;SDS011;8373;48.110;11.522;2023-01-24T09:44:15;89.53;;;25.73;;
16520;SDS011;8373;48.110;11.522;2023-01-24T09:46:48;97.67;;;27.30;;
16520;SDS011;8373;48.110;11.522;2023-01-24T09:49:21;105.67;;;30.83;;
16520;SDS011;8373;48.110;11.522;2023-01-24T09:51:55;95.97;;;28.13;;
16520;SDS011;8373;48.110;11.522;2023-01-24T09:54:25;112.07;;;32.53;;
16520;SDS011;8373;48.110;11.522;2023-01-24T09:56:57;118.27;;;26.13;;
16520;SDS011;8373;48.110;11.522;2023-01-24T09:59:29;95.60;;;25.70;;
16520;SDS011;8373;48.110;11.522;2023-01-24T10:02:05;94.90;;;27.33;;
16520;SDS011;8373;48.110;11.522;2023-01-24T10:04:43;100.20;;;29.67;;
16520;SDS011;8373;48.110;11.522;2023-01-24T10:07:24;111.03;;;28.50;;
16520;SDS011;8373;48.110;11.522;2023-01-24T10:10:13;86.40;;;28.90;;
16520;SDS011;8373;48.110;11.522;2023-01-24T10:12:47;85.67;;;28.33;;
16520;SDS011;8373;48.110;11.522;2023-01-24T10:15:30;95.80;;;29.17;;
16520;SDS011;8373;48.110;11.522;2023-01-24T10:23:54;108.00;;;30.30;;
16520;SDS011;8373;48.110;11.522;2023-01-24T10:26:27;98.53;;;30.67;;
16520;SDS011;8373;48.110;11.522;2023-01-24T10:29:06;102.90;;;31.70;;
16520;SDS011;8373;48.110;11.522;2023-01-24T10:31:40;85.37;;;27.67;;
16520;SDS011;8373;48.110;11.522;2023-01-24T10:34:12;76.93;;;27.30;;
16520;SDS011;8373;48.110;11.522;2023-01-24T10:36:43;99.13;;;27.70;;
16520;SDS011;8373;48.110;11.522;2023-01-24T10:39:14;91.40;;;28.93;;
16520;SDS011;8373;48.110;11.522;2023-01-24T10:41:41;100.30;;;29.53;;
16520;SDS011;8373;48.110;11.522;2023-01-24T10:44:10;93.17;;;30.33;;
16520;SDS011;8373;48.110;11.522;2023-01-24T10:49:48;102.73;;;30.00;;
16520;SDS011;8373;48.110;11.522;2023-01-24T10:52:19;88.67;;;28.00;;
16520;SDS011;8373;48.110;11.522;2023-01-24T10:54:48;99.00;;;32.07;;
16520;SDS011;8373;48.110;11.522;2023-01-24T10:57:20;98.40;;;27.57;;
16520;SDS011;8373;48.110;11.522;2023-01-24T10:59:55;100.80;;;30.80;;
16520;SDS011;8373;48.110;11.522;2023-01-24T11:02:28;116.67;;;31.37;;
16520;SDS011;8373;48.110;11.522;2023-01-24T11:05:00;103.03;;;31.20;;
16520;SDS011;8373;48.110;11.522;2023-01-24T11:07:29;105.83;;;32.40;;
16520;SDS011;8373;48.110;11.522;2023-01-24T11:09:59;101.67;;;30.07;;
16520;SDS011;8373;48.110;11.522;2023-01-24T11:12:27;100.07;;;32.97;;
16520;SDS011;8373;48.110;11.522;2023-01-24T11:14:54;98.17;;;32.10;;
16520;SDS011;8373;48.110;11.522;2023-01-24T11:17:32;101.40;;;31.70;;
16520;SDS011;8373;48.110;11.522;2023-01-24T11:20:04;115.57;;;31.77;;
16520;SDS011;8373;48.110;11.522;2023-01-24T11:22:48;96.60;;;28.90;;
16520;SDS011;8373;48.110;11.522;2023-01-24T11:25:16;98.40;;;29.40;;
16520;SDS011;8373;48.110;11.522;2023-01-24T11:27:44;109.13;;;30.53;;
16520;SDS011;8373;48.110;11.522;2023-01-24T11:30:16;97.07;;;30.30;;
16520;SDS011;8373;48.110;11.522;2023-01-24T11:32:47;89.13;;;29.13;;
16520;SDS011;8373;48.110;11.522;2023-01-24T11:35:21;89.30;;;29.77;;
16520;SDS011;8373;48.110;11.522;2023-01-24T11:40:43;92.67;;;30.20;;
16520;SDS011;8373;48.110;11.522;2023-01-24T11:43:23;86.50;;;30.53;;
16520;SDS011;8373;48.110;11.522;2023-01-24T11:46:04;95.83;;;30.53;;
16520;SDS011;8373;48.110;11.522;2023-01-24T11:48:53;98.07;;;29.00;;
16520;SDS011;8373;48.110;11.522;2023-01-24T11:51:26;83.33;;;28.23;;
16520;SDS011;8373;48.110;11.522;2023-01-24T11:54:07;88.33;;;28.93;;
16520;SDS011;8373;48.110;11.522;2023-01-24T11:56:45;82.23;;;28.77;;
16520;SDS011;8373;48.110;11.522;2023-01-24T11:59:25;89.87;;;28.90;;
16520;SDS011;8373;48.110;11.522;2023-01-24T12:02:21;88.17;;;29.63;;
16520;SDS011;8373;48.110;11.522;2023-01-24T12:08:11;95.97;;;29.23;;
16520;SDS011;8373;48.110;11.522;2023-01-24T12:10:48;93.83;;;27.30;;
16520;SDS011;8373;48.110;11.522;2023-01-24T12:13:25;85.47;;;27.63;;
16520;SDS011;8373;48.110;11.522;2023-01-24T12:16:04;88.20;;;26.93;;
16520;SDS011;8373;48.110;11.522;2023-01-24T12:18:47;96.03;;;29.13;;
16520;SDS011;8373;48.110;11.522;2023-01-24T12:21:33;84.60;;;27.93;;
16520;SDS011;8373;48.110;11.522;2023-01-24T12:24:01;95.73;;;29.70;;
16520;SDS011;8373;48.110;11.522;2023-01-24T12:26:31;80.67;;;26.37;;
16520;SDS011;8373;48.110;11.522;2023-01-24T12:29:06;81.27;;;27.40;;
16520;SDS011;8373;48.110;11.522;2023-01-24T12:31:39;87.07;;;28.73;;
16520;SDS011;8373;48.110;11.522;2023-01-24T12:34:14;80.63;;;25.87;;
16520;SDS011;8373;48.110;11.522;2023-01-24T12:36:59;71.83;;;26.27;;
16520;SDS011;8373;48.110;11.522;2023-01-24T12:39:32;89.30;;;25.50;;
16520;SDS011;8373;48.110;11.522;2023-01-24T12:42:09;78.37;;;24.17;;
16520;SDS011;8373;48.110;11.522;2023-01-24T12:44:42;77.50;;;25.37;;
16520;SDS011;8373;48.110;11.522;2023-01-24T12:47:19;82.77;;;24.80;;
16520;SDS011;8373;48.110;11.522;2023-01-24T12:49:55;80.07;;;25.80;;
16520;SDS011;8373;48.110;11.522;2023-01-24T12:52:39;86.23;;;26.97;;
16520;SDS011;8373;48.110;11.522;2023-01-24T12:55:12;86.33;;;26.07;;
16520;SDS011;8373;48.110;11.522;2023-01-24T12:57:43;99.60;;;26.70;;
16520;SDS011;8373;48.110;11.522;2023-01-24T13:00:15;75.70;;;27.00;;
16520;SDS011;8373;48.110;11.522;2023-01-24T13:05:51;106.80;;;25.43;;
16520;SDS011;8373;48.110;11.522;2023-01-24T13:08:34;74.90;;;26.53;;
16520;SDS011;8373;48.110;11.522;2023-01-24T13:11:18;73.03;;;23.30;;
16520;SDS011;8373;48.110;11.522;2023-01-24T13:13:48;78.70;;;25.90;;
16520;SDS011;8373;48.110;11.522;2023-01-24T13:19:26;76.43;;;25.70;;
16520;SDS011;8373;48.110;11.522;2023-01-24T13:22:03;88.37;;;26.63;;
16520;SDS011;8373;48.110;11.522;2023-01-24T13:24:50;83.87;;;28.33;;
16520;SDS011;8373;48.110;11.522;2023-01-24T13:27:28;76.93;;;25.13;;
16520;SDS011;8373;48.110;11.522;2023-01-24T13:30:19;78.97;;;28.37;;
16520;SDS011;8373;48.110;11.522;2023-01-24T13:32:53;65.17;;;24.20;;
16520;SDS011;8373;48.110;11.522;2023-01-24T13:35:26;77.17;;;26.20;;
16520;SDS011;8373;48.110;11.522;2023-01-24T13:37:55;90.00;;;27.83;;
16520;SDS011;8373;48.110;11.522;2023-01-24T13:40:30;72.70;;;25.43;;
16520;SDS011;8373;48.110;11.522;2023-01-24T13:43:01;108.97;;;28.00;;
16520;SDS011;8373;48.110;11.522;2023-01-24T13:45:45;69.30;;;24.20;;
16520;SDS011;8373;48.110;11.522;2023-01-24T13:54:18;79.73;;;24.87;;
16520;SDS011;8373;48.110;11.522;2023-01-24T13:57:14;89.93;;;24.77;;
16520;SDS011;8373;48.110;11.522;2023-01-24T14:00:13;84.30;;;25.67;;
16520;SDS011;8373;48.110;11.522;2023-01-24T14:02:45;74.07;;;22.03;;
16520;SDS011;8373;48.110;11.522;2023-01-24T14:05:42;76.23;;;24.50;;
16520;SDS011;8373;48.110;11.522;2023-01-24T14:08:31;73.40;;;23.70;;
16520;SDS011;8373;48.110;11.522;2023-01-24T14:11:30;93.47;;;24.53;;
16520;SDS011;8373;48.110;11.522;2023-01-24T14:14:02;63.90;;;23.70;;
16520;SDS011;8373;48.110;11.522;2023-01-24T14:19:57;73.03;;;24.90;;
16520;SDS011;8373;48.110;11.522;2023-01-24T14:22:31;72.03;;;22.23;;
16520;SDS011;8373;48.110;11.522;2023-01-24T14:25:04;101.27;;;25.73;;
16520;SDS011;8373;48.110;11.522;2023-01-24T14:27:53;65.47;;;23.60;;
16520;SDS011;8373;48.110;11.522;2023-01-24T14:30:32;68.50;;;21.57;;
16520;SDS011;8373;48.110;11.522;2023-01-24T14:33:04;61.73;;;22.20;;
16520;SDS011;8373;48.110;11.522;2023-01-24T14:35:48;72.33;;;24.90;;
16520;SDS011;8373;48.110;11.522;2023-01-24T14:38:21;78.17;;;25.40;;
16520;SDS011;8373;48.110;11.522;2023-01-24T14:40:48;78.07;;;28.97;;
16520;SDS011;8373;48.110;11.522;2023-01-24T14:43:17;83.93;;;29.37;;
16520;SDS011;8373;48.110;11.522;2023-01-24T14:45:46;93.67;;;30.40;;
16520;SDS011;8373;48.110;11.522;2023-01-24T14:48:16;81.43;;;28.23;;
16520;SDS011;8373;48.110;11.522;2023-01-24T14:50:55;90.03;;;28.77;;
16520;SDS011;8373;48.110;11.522;2023-01-24T14:53:25;94.57;;;30.30;;
16520;SDS011;8373;48.110;11.522;2023-01-24T14:55:54;99.20;;;31.10;;
16520;SDS011;8373;48.110;11.522;2023-01-24T14:58:26;113.00;;;29.43;;
16520;SDS011;8373;48.110;11.522;2023-01-24T15:00:55;102.97;;;29.73;;
16520;SDS011;8373;48.110;11.522;2023-01-24T15:03:24;98.83;;;31.30;;
16520;SDS011;8373;48.110;11.522;2023-01-24T15:05:54;87.97;;;31.00;;
16520;SDS011;8373;48.110;11.522;2023-01-24T15:08:23;96.70;;;29.33;;